sensor_id;sensor_type;location;lat;lon;timestamp;P1;durP1;ratioP1;P2;durP2;ratioP2
21266;SDS011;10791;53.108;18.326;2022-07-18T00:01:09;7.40;;;4.47;;
21266;SDS011;10791;53.108;18.326;2022-07-18T00:06:12;7.57;;;4.90;;
21266;SDS011;10791;53.108;18.326;2022-07-18T00:11:16;9.50;;;5.23;;
21266;SDS011;10791;53.108;18.326;2022-07-18T00:16:20;7.87;;;4.83;;
21266;SDS011;10791;53.108;18.326;2022-07-18T00:21:24;12.13;;;5.73;;
21266;SDS011;10791;53.108;18.326;2022-07-18T00:26:28;9.23;;;5.53;;
21266;SDS011;10791;53.108;18.326;2022-07-18T00:31:32;9.93;;;4.93;;
21266;SDS011;10791;53.108;18.326;2022-07-18T00:36:36;7.83;;;5.13;;
21266;SDS011;10791;53.108;18.326;2022-07-18T00:41:44;12.23;;;4.90;;
21266;SDS011;10791;53.108;18.326;2022-07-18T00:46:52;9.23;;;4.97;;
21266;SDS011;10791;53.108;18.326;2022-07-18T00:51:57;6.40;;;4.60;;
21266;SDS011;10791;53.108;18.326;2022-07-18T00:57:01;10.50;;;5.60;;
21266;SDS011;10791;53.108;18.326;2022-07-18T01:02:05;9.83;;;5.57;;
21266;SDS011;10791;53.108;18.326;2022-07-18T01:07:08;11.53;;;5.83;;
21266;SDS011;10791;53.108;18.326;2022-07-18T01:12:12;9.37;;;5.50;;
21266;SDS011;10791;53.108;18.326;2022-07-18T01:17:18;10.13;;;5.43;;
21266;SDS011;10791;53.108;18.326;2022-07-18T01:22:22;9.53;;;5.70;;
21266;SDS011;10791;53.108;18.326;2022-07-18T01:27:26;7.20;;;5.03;;
21266;SDS011;10791;53.108;18.326;2022-07-18T01:32:30;7.40;;;5.03;;
21266;SDS011;10791;53.108;18.326;2022-07-18T01:37:33;8.20;;;5.17;;
21266;SDS011;10791;53.108;18.326;2022-07-18T01:42:37;6.67;;;4.50;;
21266;SDS011;10791;53.108;18.326;2022-07-18T01:47:41;10.53;;;4.80;;
21266;SDS011;10791;53.108;18.326;2022-07-18T01:52:45;6.47;;;4.70;;
21266;SDS011;10791;53.108;18.326;2022-07-18T01:57:48;11.93;;;5.90;;
21266;SDS011;10791;53.108;18.326;2022-07-18T02:02:52;10.23;;;5.53;;
21266;SDS011;10791;53.108;18.326;2022-07-18T02:07:56;6.90;;;4.23;;
21266;SDS011;10791;53.108;18.326;2022-07-18T02:13:00;8.53;;;5.10;;
21266;SDS011;10791;53.108;18.326;2022-07-18T02:18:03;7.20;;;4.63;;
21266;SDS011;10791;53.108;18.326;2022-07-18T02:23:07;9.43;;;4.80;;
21266;SDS011;10791;53.108;18.326;2022-07-18T02:28:11;7.13;;;4.43;;
21266;SDS011;10791;53.108;18.326;2022-07-18T02:33:15;7.47;;;4.47;;
21266;SDS011;10791;53.108;18.326;2022-07-18T02:38:19;6.87;;;4.13;;
21266;SDS011;10791;53.108;18.326;2022-07-18T02:43:27;7.40;;;4.70;;
21266;SDS011;10791;53.108;18.326;2022-07-18T02:48:30;7.60;;;4.63;;
21266;SDS011;10791;53.108;18.326;2022-07-18T02:53:33;7.30;;;4.90;;
21266;SDS011;10791;53.108;18.326;2022-07-18T02:58:37;7.30;;;4.47;;
21266;SDS011;10791;53.108;18.326;2022-07-18T03:03:41;9.90;;;5.27;;
21266;SDS011;10791;53.108;18.326;2022-07-18T03:08:44;7.73;;;5.50;;
21266;SDS011;10791;53.108;18.326;2022-07-18T03:13:48;12.13;;;7.07;;
21266;SDS011;10791;53.108;18.326;2022-07-18T03:18:52;9.67;;;5.90;;
21266;SDS011;10791;53.108;18.326;2022-07-18T03:23:56;13.00;;;6.57;;
21266;SDS011;10791;53.108;18.326;2022-07-18T03:29:00;11.77;;;7.50;;
21266;SDS011;10791;53.108;18.326;2022-07-18T03:34:04;8.60;;;5.93;;
21266;SDS011;10791;53.108;18.326;2022-07-18T03:39:11;8.90;;;5.70;;
21266;SDS011;10791;53.108;18.326;2022-07-18T03:44:15;8.70;;;5.57;;
21266;SDS011;10791;53.108;18.326;2022-07-18T03:49:19;8.40;;;4.77;;
21266;SDS011;10791;53.108;18.326;2022-07-18T03:54:23;11.60;;;5.33;;
21266;SDS011;10791;53.108;18.326;2022-07-18T03:59:27;10.50;;;5.67;;
21266;SDS011;10791;53.108;18.326;2022-07-18T04:04:31;9.67;;;6.10;;
21266;SDS011;10791;53.108;18.326;2022-07-18T04:09:35;11.07;;;5.70;;
21266;SDS011;10791;53.108;18.326;2022-07-18T04:14:38;10.47;;;6.70;;
21266;SDS011;10791;53.108;18.326;2022-07-18T04:19:42;11.27;;;7.47;;
21266;SDS011;10791;53.108;18.326;2022-07-18T04:24:46;14.17;;;6.60;;
21266;SDS011;10791;53.108;18.326;2022-07-18T04:29:54;13.57;;;6.57;;
21266;SDS011;10791;53.108;18.326;2022-07-18T04:34:58;11.07;;;6.23;;
21266;SDS011;10791;53.108;18.326;2022-07-18T04:40:01;12.53;;;6.47;;
21266;SDS011;10791;53.108;18.326;2022-07-18T04:45:05;8.97;;;6.00;;
21266;SDS011;10791;53.108;18.326;2022-07-18T04:50:10;8.17;;;5.83;;
21266;SDS011;10791;53.108;18.326;2022-07-18T04:55:14;8.77;;;5.47;;
21266;SDS011;10791;53.108;18.326;2022-07-18T05:00:20;9.20;;;5.60;;
21266;SDS011;10791;53.108;18.326;2022-07-18T05:05:26;7.40;;;4.73;;
21266;SDS011;10791;53.108;18.326;2022-07-18T05:10:38;6.67;;;4.37;;
21266;SDS011;10791;53.108;18.326;2022-07-18T05:15:42;5.88;;;4.38;;
21266;SDS011;10791;53.108;18.326;2022-07-18T05:20:45;8.35;;;4.18;;
21266;SDS011;10791;53.108;18.326;2022-07-18T05:25:49;9.05;;;4.28;;
21266;SDS011;10791;53.108;18.326;2022-07-18T05:30:53;7.07;;;4.10;;
21266;SDS011;10791;53.108;18.326;2022-07-18T05:35:57;6.30;;;3.70;;
21266;SDS011;10791;53.108;18.326;2022-07-18T05:41:01;8.15;;;4.32;;
21266;SDS011;10791;53.108;18.326;2022-07-18T05:46:05;7.63;;;4.10;;
21266;SDS011;10791;53.108;18.326;2022-07-18T05:51:11;5.53;;;3.85;;
21266;SDS011;10791;53.108;18.326;2022-07-18T05:56:15;5.63;;;4.13;;
21266;SDS011;10791;53.108;18.326;2022-07-18T06:01:18;7.88;;;4.25;;
21266;SDS011;10791;53.108;18.326;2022-07-18T06:06:23;8.10;;;4.40;;
21266;SDS011;10791;53.108;18.326;2022-07-18T06:11:27;5.47;;;3.90;;
21266;SDS011;10791;53.108;18.326;2022-07-18T06:16:32;6.97;;;4.13;;
21266;SDS011;10791;53.108;18.326;2022-07-18T06:21:36;5.45;;;3.67;;
21266;SDS011;10791;53.108;18.326;2022-07-18T06:26:39;4.68;;;3.42;;
21266;SDS011;10791;53.108;18.326;2022-07-18T06:31:43;5.10;;;2.70;;
21266;SDS011;10791;53.108;18.326;2022-07-18T06:36:47;7.35;;;3.13;;
21266;SDS011;10791;53.108;18.326;2022-07-18T06:41:51;6.10;;;2.65;;
21266;SDS011;10791;53.108;18.326;2022-07-18T06:46:55;5.97;;;2.60;;
21266;SDS011;10791;53.108;18.326;2022-07-18T06:52:00;4.70;;;2.90;;
21266;SDS011;10791;53.108;18.326;2022-07-18T06:57:06;6.45;;;2.85;;
21266;SDS011;10791;53.108;18.326;2022-07-18T07:02:10;7.68;;;2.63;;
21266;SDS011;10791;53.108;18.326;2022-07-18T07:07:14;7.95;;;3.00;;
21266;SDS011;10791;53.108;18.326;2022-07-18T07:12:18;7.63;;;2.80;;
21266;SDS011;10791;53.108;18.326;2022-07-18T07:17:21;4.70;;;2.63;;
21266;SDS011;10791;53.108;18.326;2022-07-18T07:22:41;7.35;;;2.75;;
21266;SDS011;10791;53.108;18.326;2022-07-18T07:27:53;6.35;;;2.58;;
21266;SDS011;10791;53.108;18.326;2022-07-18T07:33:01;7.80;;;3.13;;
21266;SDS011;10791;53.108;18.326;2022-07-18T07:38:11;4.57;;;2.38;;
21266;SDS011;10791;53.108;18.326;2022-07-18T07:43:20;6.50;;;2.78;;
21266;SDS011;10791;53.108;18.326;2022-07-18T07:48:24;5.90;;;2.38;;
21266;SDS011;10791;53.108;18.326;2022-07-18T07:53:31;7.75;;;2.60;;
21266;SDS011;10791;53.108;18.326;2022-07-18T07:58:34;5.00;;;2.80;;
21266;SDS011;10791;53.108;18.326;2022-07-18T08:03:38;10.20;;;2.40;;
21266;SDS011;10791;53.108;18.326;2022-07-18T08:08:44;4.57;;;2.30;;
21266;SDS011;10791;53.108;18.326;2022-07-18T08:13:48;5.00;;;2.70;;
21266;SDS011;10791;53.108;18.326;2022-07-18T08:18:52;4.90;;;2.30;;
21266;SDS011;10791;53.108;18.326;2022-07-18T08:23:59;4.35;;;2.30;;
21266;SDS011;10791;53.108;18.326;2022-07-18T08:29:06;6.75;;;2.50;;
21266;SDS011;10791;53.108;18.326;2022-07-18T08:34:16;6.78;;;2.40;;
21266;SDS011;10791;53.108;18.326;2022-07-18T08:39:24;4.47;;;2.30;;
21266;SDS011;10791;53.108;18.326;2022-07-18T08:44:28;8.75;;;2.50;;
21266;SDS011;10791;53.108;18.326;2022-07-18T08:49:35;5.18;;;2.65;;
21266;SDS011;10791;53.108;18.326;2022-07-18T08:54:42;3.53;;;2.35;;
21266;SDS011;10791;53.108;18.326;2022-07-18T08:59:47;4.20;;;2.72;;
21266;SDS011;10791;53.108;18.326;2022-07-18T09:04:50;4.45;;;2.50;;
21266;SDS011;10791;53.108;18.326;2022-07-18T09:10:15;9.05;;;3.42;;
21266;SDS011;10791;53.108;18.326;2022-07-18T09:15:19;7.60;;;2.70;;
21266;SDS011;10791;53.108;18.326;2022-07-18T09:20:22;4.55;;;2.58;;
21266;SDS011;10791;53.108;18.326;2022-07-18T09:25:32;7.20;;;2.50;;
21266;SDS011;10791;53.108;18.326;2022-07-18T09:30:35;5.00;;;2.40;;
21266;SDS011;10791;53.108;18.326;2022-07-18T09:35:52;6.15;;;2.75;;
21266;SDS011;10791;53.108;18.326;2022-07-18T09:40:57;11.15;;;2.67;;
21266;SDS011;10791;53.108;18.326;2022-07-18T09:46:00;3.97;;;2.28;;
21266;SDS011;10791;53.108;18.326;2022-07-18T09:51:09;4.88;;;2.17;;
21266;SDS011;10791;53.108;18.326;2022-07-18T09:56:23;5.68;;;2.70;;
21266;SDS011;10791;53.108;18.326;2022-07-18T10:01:38;4.65;;;2.75;;
21266;SDS011;10791;53.108;18.326;2022-07-18T10:06:45;4.70;;;2.58;;
21266;SDS011;10791;53.108;18.326;2022-07-18T10:11:52;6.90;;;2.33;;
21266;SDS011;10791;53.108;18.326;2022-07-18T10:17:03;5.38;;;2.15;;
21266;SDS011;10791;53.108;18.326;2022-07-18T10:22:15;6.95;;;2.60;;
21266;SDS011;10791;53.108;18.326;2022-07-18T10:27:22;9.07;;;2.50;;
21266;SDS011;10791;53.108;18.326;2022-07-18T10:32:31;6.93;;;2.53;;
21266;SDS011;10791;53.108;18.326;2022-07-18T10:37:41;3.75;;;2.17;;
21266;SDS011;10791;53.108;18.326;2022-07-18T10:42:45;7.25;;;3.15;;
21266;SDS011;10791;53.108;18.326;2022-07-18T10:59:01;4.82;;;2.20;;
21266;SDS011;10791;53.108;18.326;2022-07-18T11:04:25;4.93;;;2.50;;
21266;SDS011;10791;53.108;18.326;2022-07-18T11:09:42;6.13;;;2.50;;
21266;SDS011;10791;53.108;18.326;2022-07-18T11:15:04;3.92;;;2.50;;
21266;SDS011;10791;53.108;18.326;2022-07-18T11:20:26;3.75;;;2.40;;
21266;SDS011;10791;53.108;18.326;2022-07-18T11:25:29;5.20;;;2.60;;
21266;SDS011;10791;53.108;18.326;2022-07-18T11:31:06;3.63;;;2.33;;
21266;SDS011;10791;53.108;18.326;2022-07-18T11:36:13;5.80;;;2.30;;
21266;SDS011;10791;53.108;18.326;2022-07-18T11:41:22;5.22;;;2.20;;
21266;SDS011;10791;53.108;18.326;2022-07-18T11:46:29;5.30;;;2.10;;
21266;SDS011;10791;53.108;18.326;2022-07-18T11:51:37;6.95;;;2.17;;
21266;SDS011;10791;53.108;18.326;2022-07-18T11:56:45;3.80;;;2.10;;
21266;SDS011;10791;53.108;18.326;2022-07-18T12:01:53;3.78;;;2.15;;
21266;SDS011;10791;53.108;18.326;2022-07-18T12:07:12;5.43;;;2.42;;
21266;SDS011;10791;53.108;18.326;2022-07-18T12:12:35;4.15;;;2.38;;
21266;SDS011;10791;53.108;18.326;2022-07-18T12:17:45;4.60;;;2.35;;
21266;SDS011;10791;53.108;18.326;2022-07-18T12:23:08;5.50;;;2.20;;
21266;SDS011;10791;53.108;18.326;2022-07-18T12:28:18;6.47;;;2.00;;
21266;SDS011;10791;53.108;18.326;2022-07-18T12:33:24;7.35;;;2.10;;
21266;SDS011;10791;53.108;18.326;2022-07-18T12:38:29;2.78;;;1.92;;
21266;SDS011;10791;53.108;18.326;2022-07-18T12:43:34;3.53;;;1.80;;
21266;SDS011;10791;53.108;18.326;2022-07-18T12:48:43;4.93;;;1.83;;
21266;SDS011;10791;53.108;18.326;2022-07-18T12:53:47;5.47;;;2.33;;
21266;SDS011;10791;53.108;18.326;2022-07-18T12:58:51;3.08;;;1.77;;
21266;SDS011;10791;53.108;18.326;2022-07-18T13:03:57;3.70;;;2.30;;
21266;SDS011;10791;53.108;18.326;2022-07-18T13:09:00;2.97;;;1.85;;
21266;SDS011;10791;53.108;18.326;2022-07-18T13:14:04;5.40;;;1.50;;
21266;SDS011;10791;53.108;18.326;2022-07-18T13:19:07;7.82;;;2.17;;
21266;SDS011;10791;53.108;18.326;2022-07-18T13:24:10;6.78;;;2.15;;
21266;SDS011;10791;53.108;18.326;2022-07-18T13:29:15;3.65;;;2.10;;
21266;SDS011;10791;53.108;18.326;2022-07-18T13:34:21;1.58;;;1.33;;
21266;SDS011;10791;53.108;18.326;2022-07-18T13:39:28;4.00;;;1.60;;
21266;SDS011;10791;53.108;18.326;2022-07-18T13:44:41;3.47;;;1.30;;
21266;SDS011;10791;53.108;18.326;2022-07-18T13:49:47;2.85;;;1.58;;
21266;SDS011;10791;53.108;18.326;2022-07-18T13:54:51;2.85;;;1.83;;
21266;SDS011;10791;53.108;18.326;2022-07-18T13:59:57;3.45;;;1.80;;
21266;SDS011;10791;53.108;18.326;2022-07-18T14:05:03;2.55;;;1.70;;
21266;SDS011;10791;53.108;18.326;2022-07-18T14:10:17;3.20;;;1.60;;
21266;SDS011;10791;53.108;18.326;2022-07-18T14:15:25;4.82;;;1.60;;
21266;SDS011;10791;53.108;18.326;2022-07-18T14:20:28;3.75;;;1.65;;
21266;SDS011;10791;53.108;18.326;2022-07-18T14:25:35;3.80;;;2.20;;
21266;SDS011;10791;53.108;18.326;2022-07-18T14:30:40;3.63;;;1.70;;
21266;SDS011;10791;53.108;18.326;2022-07-18T14:35:46;2.97;;;1.80;;
21266;SDS011;10791;53.108;18.326;2022-07-18T14:40:49;3.15;;;1.70;;
21266;SDS011;10791;53.108;18.326;2022-07-18T14:45:52;4.70;;;1.88;;
21266;SDS011;10791;53.108;18.326;2022-07-18T14:51:06;3.30;;;2.22;;
21266;SDS011;10791;53.108;18.326;2022-07-18T14:56:10;2.67;;;1.67;;
21266;SDS011;10791;53.108;18.326;2022-07-18T15:01:18;2.78;;;1.98;;
21266;SDS011;10791;53.108;18.326;2022-07-18T15:06:22;3.67;;;1.95;;
21266;SDS011;10791;53.108;18.326;2022-07-18T15:11:29;3.47;;;1.77;;
21266;SDS011;10791;53.108;18.326;2022-07-18T15:16:36;5.20;;;2.25;;
21266;SDS011;10791;53.108;18.326;2022-07-18T15:21:43;3.65;;;1.80;;
21266;SDS011;10791;53.108;18.326;2022-07-18T15:26:50;4.18;;;1.90;;
21266;SDS011;10791;53.108;18.326;2022-07-18T15:31:53;6.78;;;2.58;;
21266;SDS011;10791;53.108;18.326;2022-07-18T15:36:57;4.05;;;2.28;;
21266;SDS011;10791;53.108;18.326;2022-07-18T15:42:01;4.38;;;2.25;;
21266;SDS011;10791;53.108;18.326;2022-07-18T15:47:05;5.72;;;2.67;;
21266;SDS011;10791;53.108;18.326;2022-07-18T15:52:12;4.60;;;2.70;;
21266;SDS011;10791;53.108;18.326;2022-07-18T15:57:18;4.43;;;3.03;;
21266;SDS011;10791;53.108;18.326;2022-07-18T16:02:21;3.30;;;2.30;;
21266;SDS011;10791;53.108;18.326;2022-07-18T16:07:26;3.22;;;2.25;;
21266;SDS011;10791;53.108;18.326;2022-07-18T16:12:29;4.00;;;2.33;;
21266;SDS011;10791;53.108;18.326;2022-07-18T16:17:41;4.85;;;2.47;;
21266;SDS011;10791;53.108;18.326;2022-07-18T16:22:45;3.70;;;2.67;;
21266;SDS011;10791;53.108;18.326;2022-07-18T16:27:50;4.65;;;2.40;;
21266;SDS011;10791;53.108;18.326;2022-07-18T16:32:56;4.80;;;2.42;;
21266;SDS011;10791;53.108;18.326;2022-07-18T16:38:02;6.20;;;2.60;;
21266;SDS011;10791;53.108;18.326;2022-07-18T16:43:05;4.13;;;2.00;;
21266;SDS011;10791;53.108;18.326;2022-07-18T16:48:09;3.47;;;2.40;;
21266;SDS011;10791;53.108;18.326;2022-07-18T16:53:17;8.80;;;2.50;;
21266;SDS011;10791;53.108;18.326;2022-07-18T16:58:24;5.03;;;2.35;;
21266;SDS011;10791;53.108;18.326;2022-07-18T17:03:28;2.97;;;2.28;;
21266;SDS011;10791;53.108;18.326;2022-07-18T17:08:33;4.10;;;2.63;;
21266;SDS011;10791;53.108;18.326;2022-07-18T17:13:37;4.97;;;2.70;;
21266;SDS011;10791;53.108;18.326;2022-07-18T17:18:44;3.47;;;2.40;;
21266;SDS011;10791;53.108;18.326;2022-07-18T17:23:48;2.88;;;2.15;;
21266;SDS011;10791;53.108;18.326;2022-07-18T17:28:59;4.25;;;2.28;;
21266;SDS011;10791;53.108;18.326;2022-07-18T17:34:05;6.05;;;2.60;;
21266;SDS011;10791;53.108;18.326;2022-07-18T17:39:08;9.30;;;2.70;;
21266;SDS011;10791;53.108;18.326;2022-07-18T17:44:11;4.85;;;2.13;;
21266;SDS011;10791;53.108;18.326;2022-07-18T17:49:16;4.53;;;2.40;;
21266;SDS011;10791;53.108;18.326;2022-07-18T17:54:27;4.35;;;2.40;;
21266;SDS011;10791;53.108;18.326;2022-07-18T17:59:35;4.65;;;2.40;;
21266;SDS011;10791;53.108;18.326;2022-07-18T18:04:39;5.88;;;2.92;;
21266;SDS011;10791;53.108;18.326;2022-07-18T18:09:42;9.55;;;3.00;;
21266;SDS011;10791;53.108;18.326;2022-07-18T18:14:47;4.22;;;2.38;;
21266;SDS011;10791;53.108;18.326;2022-07-18T18:19:52;3.40;;;2.38;;
21266;SDS011;10791;53.108;18.326;2022-07-18T18:24:57;4.57;;;2.33;;
21266;SDS011;10791;53.108;18.326;2022-07-18T18:30:04;6.32;;;2.35;;
21266;SDS011;10791;53.108;18.326;2022-07-18T18:35:11;5.10;;;2.55;;
21266;SDS011;10791;53.108;18.326;2022-07-18T18:40:16;4.43;;;2.42;;
21266;SDS011;10791;53.108;18.326;2022-07-18T18:45:20;15.73;;;3.78;;
21266;SDS011;10791;53.108;18.326;2022-07-18T18:50:24;19.23;;;5.35;;
21266;SDS011;10791;53.108;18.326;2022-07-18T18:55:28;12.63;;;5.30;;
21266;SDS011;10791;53.108;18.326;2022-07-18T19:00:32;13.57;;;4.68;;
21266;SDS011;10791;53.108;18.326;2022-07-18T19:05:35;14.63;;;5.68;;
21266;SDS011;10791;53.108;18.326;2022-07-18T19:10:38;20.92;;;5.72;;
21266;SDS011;10791;53.108;18.326;2022-07-18T19:15:42;25.25;;;6.97;;
21266;SDS011;10791;53.108;18.326;2022-07-18T19:20:47;29.50;;;6.88;;
21266;SDS011;10791;53.108;18.326;2022-07-18T19:25:51;19.27;;;6.80;;
21266;SDS011;10791;53.108;18.326;2022-07-18T19:30:55;13.55;;;5.72;;
21266;SDS011;10791;53.108;18.326;2022-07-18T19:35:59;14.27;;;6.20;;
21266;SDS011;10791;53.108;18.326;2022-07-18T19:41:07;13.95;;;5.90;;
21266;SDS011;10791;53.108;18.326;2022-07-18T19:46:10;13.65;;;7.35;;
21266;SDS011;10791;53.108;18.326;2022-07-18T19:51:14;17.52;;;6.57;;
21266;SDS011;10791;53.108;18.326;2022-07-18T19:56:20;13.95;;;6.90;;
21266;SDS011;10791;53.108;18.326;2022-07-18T20:01:25;11.07;;;6.95;;
21266;SDS011;10791;53.108;18.326;2022-07-18T20:06:31;12.75;;;5.07;;
21266;SDS011;10791;53.108;18.326;2022-07-18T20:11:36;11.15;;;5.22;;
21266;SDS011;10791;53.108;18.326;2022-07-18T20:16:40;13.10;;;6.20;;
21266;SDS011;10791;53.108;18.326;2022-07-18T20:21:44;12.68;;;6.05;;
21266;SDS011;10791;53.108;18.326;2022-07-18T20:26:48;18.20;;;6.25;;
21266;SDS011;10791;53.108;18.326;2022-07-18T20:31:53;10.80;;;6.07;;
21266;SDS011;10791;53.108;18.326;2022-07-18T20:37:03;10.13;;;5.82;;
21266;SDS011;10791;53.108;18.326;2022-07-18T20:42:14;13.05;;;6.28;;
21266;SDS011;10791;53.108;18.326;2022-07-18T20:47:18;14.35;;;8.43;;
21266;SDS011;10791;53.108;18.326;2022-07-18T20:52:21;20.25;;;8.82;;
21266;SDS011;10791;53.108;18.326;2022-07-18T20:57:25;14.77;;;6.90;;
21266;SDS011;10791;53.108;18.326;2022-07-18T21:02:29;14.43;;;6.32;;
21266;SDS011;10791;53.108;18.326;2022-07-18T21:07:32;14.90;;;6.22;;
21266;SDS011;10791;53.108;18.326;2022-07-18T21:12:41;13.25;;;5.82;;
21266;SDS011;10791;53.108;18.326;2022-07-18T21:17:49;11.95;;;7.03;;
21266;SDS011;10791;53.108;18.326;2022-07-18T21:22:54;12.10;;;6.78;;
21266;SDS011;10791;53.108;18.326;2022-07-18T21:27:58;17.90;;;7.95;;
21266;SDS011;10791;53.108;18.326;2022-07-18T21:33:10;14.40;;;7.55;;
21266;SDS011;10791;53.108;18.326;2022-07-18T21:38:14;12.20;;;7.72;;
21266;SDS011;10791;53.108;18.326;2022-07-18T21:43:18;14.07;;;8.00;;
21266;SDS011;10791;53.108;18.326;2022-07-18T21:48:21;14.75;;;8.45;;
21266;SDS011;10791;53.108;18.326;2022-07-18T21:53:25;13.93;;;8.25;;
21266;SDS011;10791;53.108;18.326;2022-07-18T21:58:29;11.57;;;7.03;;
21266;SDS011;10791;53.108;18.326;2022-07-18T22:03:32;12.52;;;8.35;;
21266;SDS011;10791;53.108;18.326;2022-07-18T22:08:36;11.60;;;7.93;;
21266;SDS011;10791;53.108;18.326;2022-07-18T22:13:39;10.98;;;7.60;;
21266;SDS011;10791;53.108;18.326;2022-07-18T22:18:45;12.15;;;7.65;;
21266;SDS011;10791;53.108;18.326;2022-07-18T22:23:49;16.45;;;7.55;;
21266;SDS011;10791;53.108;18.326;2022-07-18T22:28:53;12.52;;;8.13;;
21266;SDS011;10791;53.108;18.326;2022-07-18T22:33:57;14.23;;;7.85;;
21266;SDS011;10791;53.108;18.326;2022-07-18T22:39:01;12.88;;;7.90;;
21266;SDS011;10791;53.108;18.326;2022-07-18T22:44:05;11.30;;;8.02;;
21266;SDS011;10791;53.108;18.326;2022-07-18T22:49:09;14.93;;;8.05;;
21266;SDS011;10791;53.108;18.326;2022-07-18T22:54:12;12.55;;;7.65;;
21266;SDS011;10791;53.108;18.326;2022-07-18T22:59:16;10.65;;;8.07;;
21266;SDS011;10791;53.108;18.326;2022-07-18T23:04:20;9.65;;;6.68;;
21266;SDS011;10791;53.108;18.326;2022-07-18T23:09:24;11.60;;;7.13;;
21266;SDS011;10791;53.108;18.326;2022-07-18T23:14:27;9.77;;;6.47;;
21266;SDS011;10791;53.108;18.326;2022-07-18T23:19:31;9.30;;;7.13;;
21266;SDS011;10791;53.108;18.326;2022-07-18T23:24:35;10.43;;;7.38;;
21266;SDS011;10791;53.108;18.326;2022-07-18T23:29:39;8.98;;;6.80;;
21266;SDS011;10791;53.108;18.326;2022-07-18T23:34:43;12.40;;;7.95;;
21266;SDS011;10791;53.108;18.326;2022-07-18T23:39:46;9.50;;;7.18;;
21266;SDS011;10791;53.108;18.326;2022-07-18T23:44:50;10.30;;;7.53;;
21266;SDS011;10791;53.108;18.326;2022-07-18T23:49:54;10.60;;;7.85;;
21266;SDS011;10791;53.108;18.326;2022-07-18T23:54:58;11.25;;;7.78;;
